Date,TemperatureHighF,TemperatureAvgF,TemperatureLowF,DewpointHighF,DewpointAvgF,DewpointLowF,HumidityHigh,HumidityAvg,HumidityLow,PressureMaxIn,PressureMinIn,WindSpeedMaxMPH,WindSpeedAvgMPH,GustSpeedMaxMPH,PrecipitationSumIn
2013-11-1,46.2,42.3,35.1,46.0,42.0,34.8,99,99,99,29.67,29.29,5,2,13,0.00
2013-11-2,48.7,39.3,32.7,41.4,36.6,31.7,99,91,72,30.05,29.66,4,0,9,0.00
2013-11-3,53.1,39.6,26.4,42.8,35.0,26.2,99,85,57,30.17,30.04,8,1,17,0.00
2013-11-4,52.9,46.8,40.8,48.0,42.8,37.8,99,86,75,30.08,29.92,8,2,19,0.00
2013-11-5,55.8,49.5,45.1,55.5,49.2,44.9,99,99,96,30.15,29.75,10,1,22,0.56
2013-11-6,54.9,42.1,32.5,54.6,38.9,26.1,99,89,69,30.07,29.63,8,2,18,0.34
2013-11-7,32.7,28.4,24.1,27.6,25.5,22.8,97,89,80,30.10,30.07,4,1,7,0.00
2013-11-8,46.4,35.9,22.1,37.5,31.1,21.9,99,84,64,30.17,29.69,6,2,14,0.00
2013-11-9,52.2,45.3,36.5,44.8,37.9,26.4,94,76,56,30.02,29.67,9,5,31,0.08
2013-11-10,49.1,40.5,33.8,34.2,31.6,27.4,81,71,53,30.22,30.01,7,2,13,0.00
2013-11-11,43.5,31.2,18.1,35.9,26.6,13.6,99,84,72,30.45,29.95,7,2,12,0.02
2013-11-12,30.9,20.8,14.4,17.3,13.6,10.5,85,74,52,30.59,30.42,6,1,10,0.01
2013-11-13,42.3,28.6,15.1,22.3,17.2,12.0,88,64,42,30.43,29.95,11,4,19,0.00
2013-11-14,47.5,38.3,29.7,33.1,27.1,19.1,79,64,54,29.96,29.78,8,3,16,0.00
2013-11-15,58.5,42.0,29.8,43.0,35.0,27.4,94,77,58,29.83,29.76,6,1,12,0.00
2013-11-16,58.1,48.0,36.5,56.9,47.6,35.2,99,98,94,29.76,29.37,8,3,20,0.24
2013-11-17,57.2,48.8,37.4,56.9,48.3,35.3,99,98,92,29.62,29.10,11,3,22,0.45
2013-11-18,37.4,33.7,32.0,35.9,31.4,28.6,96,91,86,29.83,29.62,8,5,17,0.00
2013-11-19,43.7,30.3,18.5,31.1,25.4,17.8,99,83,57,30.23,30.10,7,1,14,0.00
2013-11-20,38.8,34.2,30.4,35.0,32.2,30.0,99,93,74,30.10,29.96,8,2,17,0.08
2013-11-21,41.4,38.0,35.2,41.1,37.7,35.0,99,99,99,30.16,29.98,6,0,11,0.00
2013-11-22,36.1,29.3,21.6,35.9,25.3,15.5,99,86,61,30.38,30.15,8,2,16,0.06
2013-11-23,22.3,16.3,8.2,15.9,6.5,1.1,79,65,49,30.60,30.30,9,2,15,0.00
2013-11-24,26.6,16.1,5.4,9.4,5.2,0.3,84,63,41,30.56,30.12,10,3,17,0.00
2013-11-25,28.6,24.7,19.0,28.3,21.8,9.3,99,90,56,30.12,29.90,11,5,22,0.00
2013-11-26,30.7,23.6,10.8,29.2,17.5,1.7,99,78,56,30.11,29.90,8,2,16,0.00
2013-11-27,27.7,16.6,7.3,14.1,8.8,1.5,84,71,54,30.16,30.06,5,1,10,0.00
2013-11-28,30.9,22.9,15.4,19.3,14.6,9.8,78,70,60,30.37,30.00,5,1,11,0.00
2013-11-29,30.6,21.9,9.9,22.9,16.3,7.5,93,79,65,30.47,30.20,5,1,12,0.00
2013-11-30,43.5,32.7,24.6,34.4,28.4,21.4,94,84,69,30.19,29.92,6,2,13,0.00